Rockford, IL (61103)

1:14 PM CDT on August 30, 2015 (GMT -0500)
Brookview School Area | | Change Station
CLOSE
Current Station
Personal Weather Station
Location: Rockford, IL
Elevation: 879 ft
Nearby Weather Stations

Elev 879 ft 42.29 °N, 89.01 °W | Updated 4 minutes ago

Overcast
Overcast
72.9 °F
Feels Like 74 °F
N
1.0
Wind Variable Wind from SSE
Gusts 3.0 mph

Today
High -- | Low -- °F
--% Chance of Precip.
Yesterday
High -- | Low -- °F
Precip. -- in
6:19 AM 7:33 PM
Full, 99% visible
Pressure 30.09 in
Visibility 10.0 miles
Clouds Overcast 2100 ft
Heat Index 74 °F
Dew Point 64 °F
Humidity 74%
Rainfall 0.00 in
Snow Depth Not available.
UV 3 out of 12
Pollen 10.40 out of 12
Air Quality Not available.
Flu Activity Not available.
METAR KRFD 301754Z 00000KT 10SM OVC021 22/16 A3009 RMK AO2 SLP188 T02220161 10222 20183 58003
Pressure 30.09 in
Visibility 10.0 miles
Clouds Overcast 2100 ft
Heat Index 74 °F
Dew Point 64 °F
Humidity 74%
Rainfall 0.00 in
Snow Depth Not available.
UV 3 out of 12
Pollen 10.40 out of 12
Air Quality Not available.
Flu Activity Not available.
METAR KRFD 301754Z 00000KT 10SM OVC021 22/16 A3009 RMK AO2 SLP188 T02220161 10222 20183 58003

10-Day Weather Forecast

×

Almanac

Astronomy

Aug. 30, 2015 Rise Set
Actual Time
Civil Twilight
Nautical Twilight
Astronomical Twilight
Moon
Length of Visible Light
Length of Day
Tomorrow will be .
, % of the Moon is Illuminated

Today's Extremes

State Highs State Lows

Community

WunderPhotos

Upload Photos

1,851,027 photos uploaded!

WunderBlogs® & News

Nearby

Air Quality

  Air Quality AQ Index Pollutant
Not available.

Snow Depth

Station Depth Elevation

Earthquake Activity

City Distance Mag. Time & Date
Minimum magnitude displayed is 2.5.

Coastal Water Temperatures

Place Temperature

Stations

Nearby Weather Stations

Station Location Temp. Windchill Dew Point Humidity Wind Precip. Elev Updated Type